Time;durP1;ratioP1;P1;durP2;ratioP2;P2;SDS_P1;SDS_P2;PMS_P1;PMS_P2;Temp;Humidity;BMP_temperature;BMP_pressure;BME280_temperature;BME280_humidity;BME280_pressure;Samples;Min_cycle;Max_cycle;Signal;HPM_P1;HPM_P2
2024/03/15 00:01:40;;;;;;;9.68;3.85;;;;;;;7.48;73.40;99501.34;4926008;29;20063;-93
2024/03/15 00:04:06;;;;;;;5.07;3.67;;;;;;;7.46;73.02;99499.97;4926788;29;20023;-93
2024/03/15 00:06:34;;;;;;;10.70;5.20;;;;;;;7.50;73.31;99503.78;4940650;29;20493;-93
2024/03/15 00:08:59;;;;;;;7.75;4.50;;;;;;;7.49;73.64;99502.16;4942435;29;20031;-94
2024/03/15 00:11:24;;;;;;;11.57;5.53;;;;;;;7.51;73.70;99500.03;4926765;29;20038;-94
2024/03/15 00:13:50;;;;;;;7.45;4.65;;;;;;;7.49;74.07;99489.59;4921992;29;20084;-93
2024/03/15 00:16:15;;;;;;;4.88;3.67;;;;;;;7.32;75.40;99486.09;4907225;29;20537;-93
2024/03/15 00:18:41;;;;;;;6.47;4.00;;;;;;;7.33;76.03;99506.47;4906595;29;20023;-95
2024/03/15 00:21:06;;;;;;;6.07;4.28;;;;;;;7.05;76.28;99478.69;4908234;29;20031;-93
2024/03/15 00:23:32;;;;;;;6.55;4.25;;;;;;;7.06;76.80;99491.06;4923559;29;20023;-93
2024/03/15 00:26:02;;;;;;;6.43;4.43;;;;;;;7.05;76.76;99483.25;4906317;29;20529;-93
2024/03/15 00:28:27;;;;;;;6.45;4.45;;;;;;;7.12;77.00;99507.19;4924249;29;20118;-93
2024/03/15 00:30:55;;;;;;;5.60;4.53;;;;;;;6.92;76.88;99468.31;4910404;29;20031;-93
2024/03/15 00:33:20;;;;;;;6.18;4.65;;;;;;;7.03;77.30;99496.06;4910422;29;20039;-93
2024/03/15 00:35:47;;;;;;;6.50;4.32;;;;;;;6.88;77.89;99485.91;4911098;29;20117;-93
2024/03/15 00:38:12;;;;;;;8.73;4.40;;;;;;;6.85;78.08;99486.41;4925677;29;20491;-93
2024/03/15 00:40:38;;;;;;;6.97;4.63;;;;;;;6.96;78.35;99504.25;4941490;29;20012;-93
2024/03/15 00:43:03;;;;;;;7.40;4.57;;;;;;;6.87;78.88;99492.34;4909818;29;20031;-93
2024/03/15 00:45:29;;;;;;;6.50;4.47;;;;;;;6.78;78.82;99464.31;4910328;29;20024;-93
2024/03/15 00:47:55;;;;;;;7.43;4.45;;;;;;;6.92;78.19;99472.88;4942653;29;20019;-91
2024/03/15 00:50:21;;;;;;;8.98;4.32;;;;;;;7.01;78.23;99484.78;4901796;29;20080;-92
2024/03/15 00:52:47;;;;;;;5.80;4.57;;;;;;;7.15;77.99;99490.66;4891049;29;20028;-92
2024/03/15 00:55:12;;;;;;;6.55;4.55;;;;;;;7.09;77.65;99476.34;4891161;29;20035;-92
2024/03/15 00:57:38;;;;;;;6.28;4.07;;;;;;;6.97;76.64;99438.97;4891217;29;20059;-91
2024/03/15 01:00:07;;;;;;;7.55;4.70;;;;;;;7.16;76.29;99460.97;4890887;29;20111;-93
2024/03/15 01:02:35;;;;;;;6.32;4.30;;;;;;;7.18;76.55;99464.22;4907545;29;20028;-94
2024/03/15 01:05:01;;;;;;;6.78;4.43;;;;;;;7.18;76.78;99461.53;4906755;29;20038;-92
2024/03/15 01:07:27;;;;;;;5.30;4.05;;;;;;;7.07;77.39;99465.09;4907695;29;20024;-94
2024/03/15 01:09:52;;;;;;;6.70;4.10;;;;;;;6.98;78.00;99470.03;4906001;29;20035;-94
2024/03/15 01:12:18;;;;;;;5.65;4.30;;;;;;;6.88;78.48;99449.25;4906627;29;20072;-93
2024/03/15 01:14:45;;;;;;;6.13;4.35;;;;;;;6.88;78.14;99440.41;4890786;29;20028;-93
2024/03/15 01:17:10;;;;;;;5.60;4.30;;;;;;;6.96;78.00;99463.31;4890176;29;20024;-93
2024/03/15 01:19:38;;;;;;;5.72;4.25;;;;;;;7.00;77.67;99464.44;4891407;29;20028;-92
2024/03/15 01:22:03;;;;;;;6.25;4.40;;;;;;;6.86;77.84;99442.53;4907210;29;20024;-93
2024/03/15 01:24:29;;;;;;;7.38;4.30;;;;;;;6.99;77.60;99468.16;4891204;29;20059;-93
2024/03/15 01:26:54;;;;;;;10.80;4.30;;;;;;;6.94;78.60;99460.06;4890938;29;20044;-94
2024/03/15 01:29:22;;;;;;;6.55;5.03;;;;;;;6.78;79.13;99446.41;4905810;29;20622;-93
2024/03/15 01:31:49;;;;;;;6.65;4.20;;;;;;;6.78;79.03;99446.41;4906161;29;20024;-92
2024/03/15 01:34:16;;;;;;;7.15;4.60;;;;;;;6.85;79.12;99454.31;4891435;29;20036;-93
2024/03/15 01:36:42;;;;;;;7.88;4.28;;;;;;;6.80;79.05;99457.69;4890771;29;20482;-93
2024/03/15 01:39:08;;;;;;;6.30;3.90;;;;;;;6.76;79.25;99450.38;4906589;29;20035;-94
2024/03/15 01:41:33;;;;;;;6.30;4.20;;;;;;;6.80;79.10;99462.22;4907142;29;20032;-92
2024/03/15 01:44:00;;;;;;;6.57;4.38;;;;;;;6.76;79.02;99437.81;4905703;29;20494;-93
2024/03/15 01:46:26;;;;;;;10.00;4.03;;;;;;;6.90;79.34;99462.41;4891311;29;20491;-94
2024/03/15 01:48:52;;;;;;;5.63;4.40;;;;;;;6.83;78.92;99457.22;4905635;29;20032;-92
2024/03/15 01:51:17;;;;;;;5.97;4.30;;;;;;;6.78;79.00;99437.56;4906764;29;20039;-92
2024/03/15 01:53:43;;;;;;;5.50;4.35;;;;;;;6.63;79.48;99430.09;4906357;29;20502;-92
2024/03/15 01:56:09;;;;;;;9.43;4.82;;;;;;;6.92;79.31;99470.19;4889921;29;20047;-94
2024/03/15 01:58:36;;;;;;;10.65;4.50;;;;;;;6.73;79.87;99449.00;4890142;29;20024;-93
2024/03/15 02:01:02;;;;;;;6.35;4.88;;;;;;;6.70;79.77;99440.63;4906523;29;20086;-93
2024/03/15 02:03:29;;;;;;;5.70;4.18;;;;;;;6.77;80.08;99447.47;4890286;29;20040;-93
2024/03/15 02:05:55;;;;;;;5.22;4.10;;;;;;;6.84;79.61;99450.78;4906008;29;20032;-93
2024/03/15 02:08:21;;;;;;;4.95;3.90;;;;;;;6.77;79.68;99446.66;4889846;29;20035;-94
2024/03/15 02:10:47;;;;;;;6.50;3.85;;;;;;;6.73;79.44;99438.28;4890645;29;20045;-94
2024/03/15 02:13:15;;;;;;;8.98;4.18;;;;;;;6.85;79.82;99454.31;4905874;29;20048;-93
2024/03/15 02:15:43;;;;;;;5.75;3.55;;;;;;;6.86;79.63;99450.56;4890188;29;20028;-93
2024/03/15 02:18:09;;;;;;;5.57;4.20;;;;;;;6.79;79.01;99440.00;4890631;29;20407;-93
2024/03/15 02:20:34;;;;;;;6.25;4.25;;;;;;;6.80;79.01;99441.63;4890665;29;20043;-94
2024/03/15 02:23:00;;;;;;;10.40;4.43;;;;;;;6.90;78.10;99435.63;4905356;29;20036;-93
2024/03/15 02:25:26;;;;;;;4.70;3.63;;;;;;;7.00;77.71;99440.34;4890453;29;20043;-94
2024/03/15 02:27:52;;;;;;;4.75;3.50;;;;;;;7.11;77.21;99441.31;4905185;29;20032;-92
2024/03/15 02:30:20;;;;;;;3.95;2.85;;;;;;;7.15;75.18;99458.53;4891449;29;20514;-93
2024/03/15 02:32:47;;;;;;;5.30;3.17;;;;;;;7.15;74.37;99450.50;4891024;29;20028;-94
2024/03/15 02:35:12;;;;;;;5.30;3.45;;;;;;;7.13;74.31;99441.88;4904760;29;20036;-93
2024/03/15 02:37:38;;;;;;;8.10;3.60;;;;;;;7.22;74.79;99456.47;4890661;29;20028;-92
2024/03/15 02:40:06;;;;;;;5.53;3.85;;;;;;;7.13;74.46;99447.25;4889755;29;20028;-94
2024/03/15 02:42:32;;;;;;;7.90;4.22;;;;;;;7.18;74.38;99453.50;4890566;29;20057;-93
2024/03/15 02:44:58;;;;;;;6.93;3.53;;;;;;;7.27;74.56;99459.25;4890353;29;20028;-93
2024/03/15 02:47:25;;;;;;;7.13;4.40;;;;;;;7.26;73.85;99455.75;4905299;29;20021;-93
2024/03/15 02:49:51;;;;;;;7.32;3.70;;;;;;;7.29;73.67;99465.16;4905994;29;20076;-93
2024/03/15 02:52:16;;;;;;;4.55;3.00;;;;;;;7.33;73.71;99465.50;4889500;29;20031;-93
2024/03/15 02:54:42;;;;;;;4.38;3.03;;;;;;;7.32;73.46;99462.00;4888282;29;20039;-93
2024/03/15 02:57:08;;;;;;;4.68;2.95;;;;;;;7.25;74.42;99453.31;4905319;29;20092;-92
2024/03/15 02:59:34;;;;;;;4.25;3.00;;;;;;;7.36;74.18;99462.31;4904437;29;20045;-93
2024/03/15 03:02:00;;;;;;;6.43;2.83;;;;;;;7.51;73.29;99483.97;4890043;29;20392;-94
2024/03/15 03:04:26;;;;;;;3.65;2.65;;;;;;;7.26;74.29;99444.22;4912480;29;20483;-93
2024/03/15 03:06:52;;;;;;;2.88;2.28;;;;;;;7.43;74.66;99479.84;4889174;29;20036;-93
2024/03/15 03:09:19;;;;;;;5.00;2.50;;;;;;;7.24;74.26;99457.88;4889478;29;20047;-92
2024/03/15 03:11:45;;;;;;;2.75;2.30;;;;;;;7.21;74.26;99458.34;4906953;29;20039;-92
2024/03/15 03:14:12;;;;;;;3.45;2.40;;;;;;;7.19;75.37;99462.34;4891453;29;20434;-93
2024/03/15 03:16:38;;;;;;;3.78;2.72;;;;;;;7.23;75.42;99480.34;4890241;29;20034;-93
2024/03/15 03:19:06;;;;;;;3.42;2.60;;;;;;;6.96;75.73;99450.72;4906405;29;20028;-94
2024/03/15 03:21:31;;;;;;;6.18;3.17;;;;;;;6.88;77.03;99459.16;4889295;29;20038;-94
2024/03/15 03:23:57;;;;;;;4.85;3.65;;;;;;;6.88;77.68;99448.44;4904000;29;20031;-93
2024/03/15 03:26:28;;;;;;;7.40;4.53;;;;;;;6.92;78.55;99462.97;4891294;29;20058;-94
2024/03/15 03:28:56;;;;;;;6.07;4.10;;;;;;;6.89;78.58;99450.09;4892366;29;20036;-93
2024/03/15 03:31:22;;;;;;;7.22;4.40;;;;;;;6.85;78.92;99449.75;4893217;29;20480;-93
2024/03/15 03:33:47;;;;;;;5.82;3.72;;;;;;;6.92;78.78;99454.94;4906790;29;20038;-94
2024/03/15 03:36:13;;;;;;;4.53;3.53;;;;;;;6.95;79.36;99475.06;4892266;29;20398;-93
2024/03/15 03:38:39;;;;;;;5.90;3.80;;;;;;;6.76;79.22;99453.06;4891759;29;20027;-92
2024/03/15 03:41:05;;;;;;;6.20;3.50;;;;;;;6.86;78.54;99462.06;4885822;29;20041;-94
2024/03/15 03:43:30;;;;;;;6.90;3.95;;;;;;;6.84;78.38;99458.00;4871417;29;20025;-94
2024/03/15 03:45:56;;;;;;;4.00;3.03;;;;;;;6.92;78.02;99465.66;4869009;29;20039;-94
2024/03/15 03:48:22;;;;;;;3.85;3.03;;;;;;;6.91;78.41;99471.22;4870122;29;20101;-93
2024/03/15 03:50:49;;;;;;;5.15;3.05;;;;;;;6.62;78.13;99440.00;4870085;29;20056;-93
2024/03/15 03:53:15;;;;;;;4.93;2.97;;;;;;;6.92;77.50;99470.19;4869502;29;20036;-94
2024/03/15 03:55:40;;;;;;;4.78;3.38;;;;;;;6.88;77.16;99456.47;4870539;29;20120;-94
2024/03/15 03:58:07;;;;;;;4.95;3.03;;;;;;;7.02;76.20;99468.50;4869604;29;20032;-94
2024/03/15 04:00:34;;;;;;;3.20;2.45;;;;;;;7.09;76.27;99482.53;4870836;29;20057;-94
2024/03/15 04:03:02;;;;;;;3.50;2.80;;;;;;;7.04;76.05;99473.63;4869747;29;20060;-93
2024/03/15 04:05:28;;;;;;;4.60;3.70;;;;;;;7.01;75.96;99463.38;4870037;29;20033;-94
2024/03/15 04:07:54;;;;;;;5.45;3.60;;;;;;;7.02;76.04;99467.69;4869788;29;20504;-91
2024/03/15 04:10:20;;;;;;;4.20;3.33;;;;;;;6.99;76.13;99462.81;4878745;29;20514;-92
2024/03/15 04:12:46;;;;;;;5.18;2.97;;;;;;;6.90;75.74;99449.00;4911870;29;20055;-92
2024/03/15 04:15:11;;;;;;;4.38;3.00;;;;;;;6.90;76.09;99443.66;4892365;29;20127;-93
2024/03/15 04:17:48;;;;;;;5.57;3.40;;;;;;;7.01;75.53;99466.06;4897895;29;20039;-95
2024/03/15 04:20:16;;;;;;;3.17;2.53;;;;;;;6.99;75.21;99471.66;4903961;29;20036;-93
2024/03/15 04:22:42;;;;;;;3.70;2.33;;;;;;;6.98;74.93;99471.91;4905407;29;20016;-92
2024/03/15 04:25:08;;;;;;;3.58;2.70;;;;;;;6.90;74.31;99459.72;4904334;29;20055;-93
2024/03/15 04:27:35;;;;;;;4.22;3.22;;;;;;;6.96;74.33;99453.41;4888427;29;20032;-93
2024/03/15 04:30:13;;;;;;;4.35;3.00;;;;;;;7.09;74.94;99471.00;4912508;29;20036;-93
2024/03/15 04:32:40;;;;;;;7.03;3.25;;;;;;;6.95;76.18;99459.00;4870426;29;20419;-94
2024/03/15 04:35:06;;;;;;;8.77;3.72;;;;;;;6.87;77.15;99463.69;4854645;29;20036;-93
2024/03/15 04:37:32;;;;;;;6.80;4.38;;;;;;;6.81;77.98;99483.41;4854510;29;20076;-93
2024/03/15 04:39:57;;;;;;;4.97;3.63;;;;;;;6.67;78.29;99448.09;4869034;29;20497;-93
2024/03/15 04:42:28;;;;;;;5.10;3.42;;;;;;;6.70;79.26;99486.13;4872276;29;20494;-93
2024/03/15 04:44:54;;;;;;;8.77;3.28;;;;;;;6.71;79.51;99501.13;4885140;29;20464;-93
2024/03/15 04:47:19;;;;;;;6.13;3.50;;;;;;;6.64;79.26;99471.84;4884876;29;20029;-93
2024/03/15 04:49:45;;;;;;;8.57;3.60;;;;;;;6.59;79.44;99474.44;4854447;29;20048;-93
2024/03/15 04:52:12;;;;;;;7.25;3.50;;;;;;;6.90;78.28;99493.72;4869877;29;20055;-93
2024/03/15 04:54:38;;;;;;;5.25;3.03;;;;;;;6.75;78.44;99480.88;4870568;29;20020;-93
2024/03/15 04:57:04;;;;;;;4.40;3.22;;;;;;;6.74;78.51;99474.69;4887924;29;20101;-93
2024/03/15 04:59:30;;;;;;;4.50;3.58;;;;;;;6.90;78.05;99489.16;4871074;29;20478;-93
2024/03/15 05:01:58;;;;;;;6.65;3.92;;;;;;;6.73;78.52;99470.41;4855896;29;20032;-93
2024/03/15 05:04:24;;;;;;;6.47;4.20;;;;;;;6.92;78.38;99486.25;4855391;29;20041;-93
2024/03/15 05:06:50;;;;;;;7.85;4.18;;;;;;;6.96;78.07;99480.16;4855634;29;20033;-93
2024/03/15 05:09:15;;;;;;;7.28;5.43;;;;;;;6.94;78.16;99468.09;4856190;29;20044;-93
2024/03/15 05:11:41;;;;;;;12.25;4.30;;;;;;;6.95;78.15;99467.84;4854162;29;20029;-93
2024/03/15 05:14:08;;;;;;;11.00;4.88;;;;;;;7.15;77.91;99496.81;4853269;29;20037;-94
2024/03/15 05:16:34;;;;;;;11.93;7.78;;;;;;;7.05;78.14;99475.22;4841072;29;20048;-95
2024/03/15 05:19:02;;;;;;;12.27;6.07;;;;;;;6.98;78.56;99485.28;4839355;29;20029;-93
2024/03/15 05:21:28;;;;;;;9.20;5.10;;;;;;;7.08;78.42;99494.28;4841687;29;20097;-94
2024/03/15 05:23:53;;;;;;;7.30;4.70;;;;;;;7.02;77.79;99473.03;4840330;29;20025;-94
2024/03/15 05:26:20;;;;;;;6.90;4.85;;;;;;;7.28;77.50;99498.34;4840861;29;20173;-95
2024/03/15 05:28:48;;;;;;;10.10;4.68;;;;;;;7.26;77.52;99489.75;4842308;29;20089;-94
2024/03/15 05:31:22;;;;;;;7.75;4.50;;;;;;;7.38;76.70;99501.19;4839899;29;20457;-95
2024/03/15 05:33:48;;;;;;;12.85;4.60;;;;;;;7.53;75.74;99499.81;4842427;29;20033;-94
2024/03/15 05:36:13;;;;;;;8.25;4.40;;;;;;;7.64;75.67;99499.72;4841153;29;20067;-96
2024/03/15 05:38:39;;;;;;;9.43;5.78;;;;;;;7.71;74.63;99483.47;4840871;29;20488;-94
2024/03/15 05:41:05;;;;;;;8.57;4.90;;;;;;;7.75;73.98;99470.38;4841382;29;20036;-96
2024/03/15 05:43:32;;;;;;;5.70;3.75;;;;;;;7.78;72.67;99473.41;4840186;29;20045;-94
2024/03/15 05:46:03;;;;;;;6.88;3.53;;;;;;;7.84;72.07;99477.75;4871044;29;20495;-96
2024/03/15 05:48:32;;;;;;;6.43;3.50;;;;;;;7.96;71.97;99479.50;4842117;29;20115;-96
2024/03/15 05:51:02;;;;;;;6.72;4.97;;;;;;;8.06;72.86;99509.13;4859670;29;20496;-95
2024/03/15 05:53:29;;;;;;;6.80;3.95;;;;;;;7.82;72.54;99479.03;4858540;29;20104;-95
2024/03/15 05:55:55;;;;;;;13.95;5.63;;;;;;;8.00;73.05;99507.44;4843340;29;20045;-95
2024/03/15 05:58:20;;;;;;;13.13;6.28;;;;;;;7.88;72.65;99488.78;4841638;29;20357;-93
2024/03/15 06:00:46;;;;;;;8.35;4.10;;;;;;;7.80;73.06;99495.41;4844049;29;20116;-95
2024/03/15 06:03:12;;;;;;;8.60;3.70;;;;;;;7.98;73.09;99515.72;4842677;29;20097;-95
2024/03/15 06:05:40;;;;;;;3.33;2.95;;;;;;;7.93;73.31;99520.19;4849215;29;20009;-95
2024/03/15 06:11:01;;;;;;;6.70;3.65;;;;;;;7.77;72.78;99505.78;4870081;29;20033;-94
2024/03/15 06:13:28;;;;;;;6.80;4.30;;;;;;;7.85;72.67;99508.84;4871658;29;20044;-95
2024/03/15 06:15:56;;;;;;;10.60;4.47;;;;;;;7.88;73.77;99499.50;4895351;29;20133;-94
2024/03/15 06:18:23;;;;;;;12.18;5.30;;;;;;;8.07;73.22;99518.78;4896045;29;20071;-96
2024/03/15 06:20:54;;;;;;;6.28;3.92;;;;;;;8.34;72.36;99534.94;4893947;29;20189;-95
2024/03/15 06:23:28;;;;;;;13.07;4.80;;;;;;;8.23;72.09;99512.56;4897456;29;20024;-96
2024/03/15 06:26:23;;;;;;;6.63;4.28;;;;;;;8.28;71.66;99528.72;4912402;29;20092;-94
2024/03/15 06:28:53;;;;;;;8.27;4.63;;;;;;;8.42;71.90;99542.59;4917701;29;20475;-96
2024/03/15 06:31:24;;;;;;;8.38;5.03;;;;;;;8.39;71.36;99515.44;4899122;29;20076;-96
2024/03/15 06:34:06;;;;;;;11.98;6.65;;;;;;;8.53;70.70;99516.72;4915097;29;20040;-96
2024/03/15 06:36:53;;;;;;;10.77;5.68;;;;;;;8.60;70.19;99505.78;4897715;29;20086;-93
2024/03/15 06:40:01;;;;;;;14.27;5.43;;;;;;;8.81;70.29;99518.34;4912433;29;20036;-95
2024/03/15 06:45:23;;;;;;;12.07;5.68;;;;;;;8.80;70.17;99513.22;4925264;29;20538;-96
2024/03/15 06:48:02;;;;;;;13.70;5.05;;;;;;;8.80;70.44;99522.09;4906766;29;20111;-93
2024/03/15 06:50:37;;;;;;;10.57;6.22;;;;;;;8.83;70.98;99543.06;4893052;29;20051;-94
2024/03/15 06:53:15;;;;;;;18.70;6.28;;;;;;;8.61;70.90;99508.22;4892136;29;20061;-93
2024/03/15 06:55:40;;;;;;;11.43;4.70;;;;;;;8.83;68.80;99528.84;4890415;29;20417;-90
2024/03/15 06:58:07;;;;;;;9.02;4.97;;;;;;;8.83;68.30;99515.41;4905607;29;20032;-91
2024/03/15 07:00:34;;;;;;;9.63;4.50;;;;;;;8.94;68.46;99519.00;4891661;29;20052;-95
2024/03/15 07:03:01;;;;;;;12.77;5.15;;;;;;;8.86;69.00;99514.88;4892437;29;20055;-93
2024/03/15 07:05:37;;;;;;;11.40;4.75;;;;;;;9.03;68.11;99512.94;4894584;29;20071;-95
2024/03/15 07:08:34;;;;;;;9.82;4.35;;;;;;;8.97;68.57;99519.31;4910751;29;20039;-96
2024/03/15 07:11:00;;;;;;;4.78;3.50;;;;;;;9.05;68.49;99544.91;4909160;29;20119;-96
2024/03/15 07:13:30;;;;;;;5.57;3.58;;;;;;;8.95;68.23;99528.69;4892756;29;20144;-95
2024/03/15 07:15:58;;;;;;;9.65;5.07;;;;;;;9.21;68.70;99540.47;4906968;29;20032;-95
2024/03/15 07:18:23;;;;;;;9.63;4.53;;;;;;;8.99;67.81;99529.81;4950485;29;20150;-93
2024/03/15 07:20:50;;;;;;;7.68;4.47;;;;;;;9.09;67.86;99533.41;4929376;29;20031;-94
2024/03/15 07:23:32;;;;;;;10.65;4.57;;;;;;;8.96;67.45;99520.38;4930557;29;20031;-95
2024/03/15 07:26:12;;;;;;;11.70;4.13;;;;;;;9.24;67.76;99537.28;4932844;29;20083;-96
2024/03/15 07:28:44;;;;;;;9.73;4.10;;;;;;;9.03;67.80;99518.28;4930402;29;20032;-96
2024/03/15 07:31:10;;;;;;;14.85;5.35;;;;;;;9.09;68.47;99524.53;4927255;29;20020;-94
2024/03/15 07:33:52;;;;;;;6.70;4.57;;;;;;;9.17;67.83;99531.28;4958417;29;20042;-96
2024/03/15 07:36:20;;;;;;;17.75;10.15;;;;;;;9.35;67.28;99543.56;4940744;29;20028;-95
2024/03/15 07:38:50;;;;;;;7.95;4.10;;;;;;;9.41;67.33;99531.78;4927217;29;20020;-93
2024/03/15 07:41:28;;;;;;;;;;;;;;;;;;;;;
2024/03/15 07:43:54;;;;;;;8.65;5.13;;;;;;;9.66;68.02;99536.53;4928985;29;20095;-94
2024/03/15 07:46:22;;;;;;;9.00;4.13;;;;;;;9.45;67.60;99522.13;4893705;29;20035;-95
2024/03/15 07:48:48;;;;;;;9.30;4.25;;;;;;;9.49;67.56;99526.72;4885441;29;20114;-95
2024/03/15 07:51:13;;;;;;;7.20;4.45;;;;;;;9.55;67.24;99526.78;4894481;29;20094;-95
2024/03/15 07:53:46;;;;;;;8.82;5.00;;;;;;;9.59;66.87;99528.69;4894428;29;20151;-95
2024/03/15 07:56:12;;;;;;;11.15;4.88;;;;;;;9.69;66.50;99528.78;4911627;29;20095;-96
2024/03/15 07:58:48;;;;;;;38.22;20.23;;;;;;;9.89;66.73;99529.97;4885869;29;20143;-94
2024/03/15 08:01:38;;;;;;;10.13;5.97;;;;;;;9.89;66.97;99521.88;4893769;29;20132;-95
2024/03/15 08:04:14;;;;;;;10.68;4.70;;;;;;;9.95;66.40;99537.00;4902657;29;20064;-96
2024/03/15 08:07:07;;;;;;;5.85;4.30;;;;;;;10.05;65.75;99528.19;4914199;29;20048;-96
2024/03/15 08:09:54;;;;;;;12.38;4.68;;;;;;;10.29;64.51;99544.69;4894993;29;20097;-96
2024/03/15 08:12:20;;;;;;;7.55;4.57;;;;;;;10.15;65.41;99522.84;4902841;29;20041;-95
2024/03/15 08:21:35;;;;;;;124.60;71.75;;;;;;;10.14;66.28;99542.75;4905937;29;20093;-95
2024/03/15 08:24:09;;;;;;;16.05;9.48;;;;;;;10.23;65.69;99529.59;4889475;29;20043;-96
2024/03/15 08:27:02;;;;;;;5.45;3.88;;;;;;;10.57;65.29;99550.78;4899728;29;20081;-94
2024/03/15 08:29:28;;;;;;;14.88;5.78;;;;;;;10.37;65.02;99529.97;4924148;29;20063;-94
2024/03/15 08:31:54;;;;;;;15.02;7.55;;;;;;;10.39;65.27;99525.13;4884968;29;20088;-93
2024/03/15 08:34:21;;;;;;;25.60;19.52;;;;;;;10.60;64.67;99529.50;4885843;29;20054;-93
2024/03/15 08:36:47;;;;;;;25.25;17.42;;;;;;;10.82;64.40;99537.38;4887163;29;20081;-94
2024/03/15 08:39:15;;;;;;;11.48;8.15;;;;;;;10.65;65.03;99526.03;4899791;29;20036;-93
2024/03/15 08:41:42;;;;;;;10.70;4.10;;;;;;;10.86;63.95;99540.34;4875235;29;20130;-94
2024/03/15 08:44:13;;;;;;;8.20;3.97;;;;;;;10.97;63.11;99527.72;4891755;29;20498;-92
2024/03/15 08:46:39;;;;;;;20.27;4.20;;;;;;;10.95;62.48;99511.81;4904672;29;20039;-93
2024/03/15 08:49:08;;;;;;;8.73;4.93;;;;;;;11.11;62.18;99504.56;4915074;29;20035;-92
2024/03/15 08:51:37;;;;;;;32.35;16.35;;;;;;;11.17;63.12;99537.72;4909364;29;20020;-92
2024/03/15 08:54:10;;;;;;;8.00;4.07;;;;;;;10.82;63.76;99512.34;4908663;29;20036;-92
2024/03/15 08:56:39;;;;;;;12.93;4.40;;;;;;;10.84;65.22;99537.13;4897004;29;20028;-95
2024/03/15 08:59:13;;;;;;;12.65;5.07;;;;;;;10.80;64.42;99512.59;4900590;29;20031;-93
2024/03/15 09:01:43;;;;;;;12.70;4.93;;;;;;;10.89;64.88;99507.47;4910963;29;20115;-94
2024/03/15 09:04:18;;;;;;;9.32;4.57;;;;;;;11.26;64.01;99536.91;4894977;29;20045;-96
2024/03/15 09:14:03;;;;;;;;;;;;;;;;;;;;;
2024/03/15 09:16:38;;;;;;;15.02;11.60;;;;;;;11.95;60.74;99509.63;4843098;29;20108;-95
2024/03/15 09:19:05;;;;;;;10.25;6.13;;;;;;;11.97;60.43;99502.84;4849352;29;20474;-93
2024/03/15 09:21:32;;;;;;;23.77;19.88;;;;;;;12.36;60.55;99521.09;4850303;29;20094;-95
2024/03/15 09:24:00;;;;;;;24.80;17.17;;;;;;;12.41;59.87;99490.53;4850236;29;20380;-92
2024/03/15 09:26:30;;;;;;;9.50;5.88;;;;;;;12.49;58.03;99487.25;4872824;29;20065;-92
2024/03/15 09:29:09;;;;;;;;;;;;;;;;;;;;;
2024/03/15 09:31:40;;;;;;;8.27;4.90;;;;;;;12.99;57.79;99492.63;4876275;29;20092;-93
2024/03/15 09:34:05;;;;;;;6.95;4.32;;;;;;;13.11;56.87;99491.22;4872294;29;20044;-93
2024/03/15 09:40:37;;;;;;;11.27;5.43;;;;;;;13.21;56.15;99486.81;4788777;29;20504;-95
2024/03/15 09:43:23;;;;;;;9.55;5.78;;;;;;;13.37;55.76;99496.44;4777259;29;20069;-93
2024/03/15 09:46:17;;;;;;;8.50;4.70;;;;;;;13.14;55.22;99469.00;4836766;29;20042;-95
2024/03/15 09:49:05;;;;;;;12.60;5.00;;;;;;;13.48;54.03;99499.84;4820401;29;20101;-95
2024/03/15 09:51:34;;;;;;;10.77;5.13;;;;;;;13.40;54.19;99495.84;4827486;29;20132;-94
2024/03/15 09:54:39;;;;;;;10.30;5.20;;;;;;;13.10;54.42;99469.88;4853022;29;20030;-96
2024/03/15 09:57:05;;;;;;;9.95;5.72;;;;;;;13.36;53.54;99475.06;4852733;29;20564;-94
2024/03/15 09:59:41;;;;;;;9.32;5.57;;;;;;;13.53;52.65;99478.97;4836249;29;20025;-94
2024/03/15 10:02:35;;;;;;;12.02;6.35;;;;;;;13.60;51.85;99475.13;4868231;29;20024;-95
2024/03/15 10:05:14;;;;;;;9.98;6.55;;;;;;;13.58;51.94;99469.19;4874863;29;20037;-96
2024/03/15 10:12:57;;;;;;;13.67;7.53;;;;;;;14.03;49.93;99473.31;4984159;23;20055;-92
2024/03/15 10:16:00;;;;;;;10.13;5.25;;;;;;;13.99;48.82;99457.94;4934903;28;20031;-96
2024/03/15 10:29:22;;;;;;;8.23;5.55;;;;;;;13.86;49.19;99457.53;4934828;29;20135;-96
2024/03/15 10:32:46;;;;;;;7.60;5.05;;;;;;;13.78;48.94;99451.94;4895770;29;20044;-96
2024/03/15 10:35:22;;;;;;;9.60;5.80;;;;;;;13.83;48.76;99460.00;4905710;29;20043;-96
2024/03/15 10:44:58;;;;;;;12.57;5.45;;;;;;;13.97;50.79;99474.47;4871498;29;20037;-95
2024/03/15 10:48:17;;;;;;;;;;;;;;;;;;;;;
2024/03/15 10:57:37;;;;;;;13.83;6.50;;;;;;;14.48;49.50;99479.22;4956483;29;20067;-94
2024/03/15 11:00:14;;;;;;;9.65;5.18;;;;;;;14.23;49.92;99474.16;4921430;28;20271;-95
2024/03/15 11:02:50;;;;;;;6.72;4.93;;;;;;;14.40;49.31;99481.78;4930593;29;20070;-94
2024/03/15 11:05:46;;;;;;;;;;;;;;;;;;;;;
2024/03/15 11:08:24;;;;;;;8.30;4.95;;;;;;;14.50;47.66;99443.72;4932498;29;20488;-95
2024/03/15 11:11:01;;;;;;;6.38;4.85;;;;;;;14.64;46.76;99441.13;4914144;29;20035;-95
2024/03/15 11:13:43;;;;;;;6.50;4.97;;;;;;;14.83;47.23;99447.31;4935469;29;20425;-96
2024/03/15 11:26:51;;;;;;;6.45;4.80;;;;;;;14.40;48.74;99468.25;4921360;29;20042;-93
2024/03/15 11:29:19;;;;;;;6.65;4.78;;;;;;;14.02;49.13;99432.97;4920290;29;20111;-92
2024/03/15 11:32:38;;;;;;;6.82;4.68;;;;;;;14.21;47.97;99441.94;4906797;29;20533;-93
2024/03/15 11:35:08;;;;;;;6.95;4.88;;;;;;;14.40;48.21;99460.94;4906477;29;20044;-94
2024/03/15 11:37:58;;;;;;;7.47;5.03;;;;;;;14.38;47.65;99437.94;4892486;29;20032;-93
2024/03/15 11:40:26;;;;;;;7.00;4.97;;;;;;;14.49;48.49;99442.13;4906193;29;20036;-96
2024/03/15 11:42:56;;;;;;;7.15;5.05;;;;;;;14.48;47.71;99435.88;4893115;29;20104;-96
2024/03/15 11:48:05;;;;;;;8.13;5.35;;;;;;;14.45;47.57;99419.41;4927092;29;20056;-96
2024/03/15 11:50:33;;;;;;;8.15;5.10;;;;;;;14.74;47.68;99447.19;4909895;29;20119;-95
2024/03/15 11:53:16;;;;;;;;;;;;;;;;;;;;;
2024/03/15 11:55:50;;;;;;;6.95;5.35;;;;;;;14.75;47.81;99421.72;4860081;29;20543;-96
2024/03/15 12:05:01;;;;;;;7.22;4.88;;;;;;;14.39;47.61;99431.44;4825210;29;20080;-96
2024/03/15 12:07:33;;;;;;;9.10;5.25;;;;;;;14.50;48.48;99449.13;4816586;29;20059;-95
2024/03/15 12:10:06;;;;;;;9.00;5.18;;;;;;;14.38;47.87;99427.91;4848058;29;20033;-96
2024/03/15 12:12:34;;;;;;;7.18;5.20;;;;;;;14.11;48.77;99439.34;4861541;29;20077;-95
2024/03/15 12:18:33;;;;;;;7.53;5.65;;;;;;;13.83;49.76;99430.22;4884263;29;20055;-96
2024/03/15 12:20:59;;;;;;;6.85;5.50;;;;;;;13.98;49.37;99440.88;4900863;29;20154;-93
2024/03/15 12:23:33;;;;;;;7.45;5.88;;;;;;;14.27;49.53;99448.91;4872732;29;20036;-94
2024/03/15 12:26:09;;;;;;;10.90;6.03;;;;;;;14.46;49.78;99459.75;4866208;29;20384;-95
2024/03/15 12:32:12;;;;;;;8.68;5.45;;;;;;;14.20;50.16;99434.13;4918233;29;20063;-95
2024/03/15 12:34:50;;;;;;;9.65;5.47;;;;;;;14.38;49.80;99454.19;4933625;29;20040;-95
2024/03/15 12:37:16;;;;;;;10.55;6.95;;;;;;;14.12;49.34;99433.66;4935820;29;20036;-96
2024/03/15 12:40:09;;;;;;;6.13;5.20;;;;;;;14.20;49.20;99418.66;4936342;29;20103;-95
2024/03/15 12:43:18;;;;;;;;;;;;;;;;;;;;;
2024/03/15 12:45:54;;;;;;;7.43;5.53;;;;;;;14.61;47.78;99447.13;4873268;29;20094;-96
2024/03/15 12:48:20;;;;;;;7.40;5.47;;;;;;;14.44;48.58;99436.75;4919465;29;20083;-95
2024/03/15 12:50:46;;;;;;;7.13;5.32;;;;;;;14.43;48.82;99440.56;4933952;29;20035;-95
2024/03/15 13:00:05;;;;;;;6.20;5.25;;;;;;;14.17;49.15;99457.16;4950114;29;20047;-95
2024/03/15 13:02:34;;;;;;;7.13;4.85;;;;;;;13.85;49.89;99449.69;4930355;29;20130;-95
2024/03/15 13:05:04;;;;;;;9.50;4.85;;;;;;;13.47;50.62;99434.13;4931855;29;20031;-96
2024/03/15 13:07:30;;;;;;;7.05;5.68;;;;;;;13.44;50.63;99437.41;4915928;29;20035;-95
2024/03/15 13:09:55;;;;;;;8.90;5.35;;;;;;;13.57;50.78;99444.03;4913988;29;20409;-96
2024/03/15 13:12:21;;;;;;;6.95;5.55;;;;;;;13.73;51.04;99466.31;4931132;29;20044;-96
2024/03/15 13:14:46;;;;;;;6.07;4.70;;;;;;;13.67;50.67;99457.44;4914598;29;20027;-96
2024/03/15 13:17:15;;;;;;;8.80;5.15;;;;;;;13.55;51.26;99443.53;4913235;29;20486;-96
2024/03/15 13:19:43;;;;;;;8.18;5.07;;;;;;;13.48;51.89;99445.75;4946884;29;20119;-96
2024/03/15 13:22:10;;;;;;;8.32;5.28;;;;;;;13.61;52.61;99450.47;4929134;29;20065;-96
2024/03/15 13:24:39;;;;;;;9.02;5.30;;;;;;;13.42;53.56;99455.00;4910561;29;20519;-93
2024/03/15 13:27:06;;;;;;;7.07;5.95;;;;;;;13.39;53.97;99453.69;4909921;29;20019;-93
2024/03/15 13:29:39;;;;;;;8.65;5.95;;;;;;;13.21;56.24;99451.66;4925150;29;20024;-93